createdAt,value
2018-12-10T00:00:15.173Z,23.87
2018-12-10T00:02:50.553Z,14.97
2018-12-10T00:05:23.225Z,15.13
2018-12-10T00:07:52.289Z,17.40
2018-12-10T00:10:21.234Z,18.17
2018-12-10T00:12:50.177Z,18.13
2018-12-10T00:15:19.138Z,22.77
2018-12-10T00:17:48.081Z,16.30
2018-12-10T00:20:17.097Z,16.43
2018-12-10T00:22:46.477Z,18.33
2018-12-10T00:25:15.533Z,18.70
2018-12-10T00:27:44.598Z,13.87
2018-12-10T00:30:15.458Z,18.70
2018-12-10T00:32:44.433Z,18.77
2018-12-10T00:35:13.377Z,24.73
2018-12-10T00:37:42.333Z,20.47
2018-12-10T00:40:11.341Z,19.77
2018-12-10T00:42:40.607Z,20.77
2018-12-10T00:45:09.740Z,19.57
2018-12-10T00:47:38.677Z,21.53
2018-12-10T00:50:07.829Z,17.60
2018-12-10T00:52:36.765Z,16.70
2018-12-10T00:55:05.821Z,19.33
2018-12-10T00:57:34.758Z,17.57
2018-12-10T01:00:04.169Z,13.03
2018-12-10T01:02:34.076Z,14.00
2018-12-10T01:05:03.117Z,19.43
2018-12-10T01:07:32.094Z,15.00
2018-12-10T01:10:01.041Z,19.97
2018-12-10T01:12:30.092Z,15.63
2018-12-10T01:14:59.134Z,15.43
2018-12-10T01:17:28.086Z,16.77
2018-12-10T01:19:57.061Z,20.10
2018-12-10T01:22:27.077Z,14.03
2018-12-10T01:24:56.061Z,17.97
2018-12-10T01:27:25.094Z,20.07
2018-12-10T01:29:54.165Z,13.97
2018-12-10T01:32:23.109Z,13.73
2018-12-10T01:34:52.048Z,18.20
2018-12-10T01:37:21.008Z,20.13
2018-12-10T01:39:50.017Z,20.13
2018-12-10T01:42:20.150Z,17.70
2018-12-10T01:44:49.101Z,15.60
2018-12-10T01:47:18.043Z,16.73
2018-12-10T01:49:46.998Z,17.50
2018-12-10T01:52:15.938Z,16.13
2018-12-10T01:54:45.084Z,17.50
2018-12-10T01:57:14.021Z,19.43
2018-12-10T01:59:42.999Z,20.63
2018-12-10T02:02:12.045Z,23.27
2018-12-10T02:04:41.122Z,22.47
2018-12-10T02:07:10.097Z,23.20
2018-12-10T02:09:39.029Z,19.57
2018-12-10T02:12:08.006Z,18.90
2018-12-10T02:14:36.953Z,24.40
2018-12-10T02:17:05.933Z,17.47
2018-12-10T02:19:35.193Z,18.10
2018-12-10T02:22:05.041Z,25.77
2018-12-10T02:24:34.049Z,20.23
2018-12-10T02:27:03.036Z,22.50
2018-12-10T02:29:31.969Z,26.27
2018-12-10T02:32:00.930Z,22.47
2018-12-10T02:34:29.871Z,24.23
2018-12-10T02:36:58.948Z,23.23
2018-12-10T02:39:27.878Z,21.57
2018-12-10T02:41:56.809Z,24.40
2018-12-10T02:44:25.802Z,17.67
2018-12-10T02:46:54.743Z,23.00
2018-12-10T02:49:23.706Z,21.93
2018-12-10T02:51:52.669Z,17.30
2018-12-10T02:54:21.733Z,20.53
2018-12-10T02:56:50.671Z,24.43
2018-12-10T02:59:19.617Z,19.77
2018-12-10T03:01:48.574Z,19.80
2018-12-10T03:04:18.273Z,19.37
2018-12-10T03:06:47.301Z,21.23
2018-12-10T03:09:16.249Z,19.17
2018-12-10T03:11:46.029Z,18.60
2018-12-10T03:14:14.994Z,23.30
2018-12-10T03:16:44.042Z,21.30
2018-12-10T03:19:13.026Z,15.33
2018-12-10T03:21:41.966Z,18.43
2018-12-10T03:24:11.080Z,16.83
2018-12-10T03:26:40.972Z,13.20
2018-12-10T03:29:09.915Z,16.57
2018-12-10T03:31:38.982Z,10.70
2018-12-10T03:34:08.789Z,13.57
2018-12-10T03:36:37.734Z,15.70
2018-12-10T03:39:07.106Z,15.90
2018-12-10T03:41:37.309Z,16.37
2018-12-10T03:44:06.265Z,14.30
2018-12-10T03:46:35.206Z,14.97
2018-12-10T03:49:04.302Z,13.07
2018-12-10T03:51:33.238Z,16.43
2018-12-10T03:54:02.186Z,13.13
2018-12-10T03:56:31.150Z,15.20
2018-12-10T03:59:00.094Z,14.93
2018-12-10T04:01:29.099Z,13.83
2018-12-10T04:03:58.041Z,15.37
2018-12-10T04:06:27.822Z,14.70
2018-12-10T04:08:56.789Z,14.87
2018-12-10T04:11:25.742Z,13.47
2018-12-10T04:13:55.035Z,11.40
2018-12-10T04:16:23.977Z,10.10
2018-12-10T04:18:53.068Z,15.13
2018-12-10T04:21:22.025Z,15.67
2018-12-10T04:23:50.987Z,18.47
2018-12-10T04:26:19.967Z,12.17
2018-12-10T04:28:48.910Z,10.70
2018-12-10T04:31:17.889Z,16.27
2018-12-10T04:33:46.834Z,12.17
2018-12-10T04:36:15.769Z,11.70
2018-12-10T04:38:44.731Z,13.80
2018-12-10T04:41:14.634Z,14.97
2018-12-10T04:43:43.889Z,17.07
2018-12-10T04:46:12.830Z,13.30
2018-12-10T04:48:41.777Z,17.77
2018-12-10T04:51:10.733Z,10.17
2018-12-10T04:53:39.671Z,12.80
2018-12-10T04:56:08.730Z,12.10
2018-12-10T04:58:37.681Z,17.57
2018-12-10T05:01:07.442Z,13.73
2018-12-10T05:03:36.455Z,12.10
2018-12-10T05:06:05.388Z,17.37
2018-12-10T05:08:34.345Z,11.93
2018-12-10T05:11:03.285Z,12.40
2018-12-10T05:13:32.694Z,19.73
2018-12-10T05:16:01.630Z,19.27
2018-12-10T05:18:30.570Z,12.37
2018-12-10T05:20:59.605Z,12.03
2018-12-10T05:23:28.673Z,14.07
2018-12-10T05:25:57.845Z,11.80
2018-12-10T05:28:26.777Z,15.83
2018-12-10T05:30:56.485Z,10.17
2018-12-10T05:33:25.441Z,13.43
2018-12-10T05:35:54.481Z,12.23
2018-12-10T05:38:23.454Z,11.77
2018-12-10T05:40:52.393Z,16.27
2018-12-10T05:43:22.173Z,10.03
2018-12-10T05:45:51.229Z,15.27
2018-12-10T05:48:20.169Z,12.10
2018-12-10T05:50:49.141Z,14.47
2018-12-10T05:53:18.099Z,12.77
2018-12-10T05:55:47.109Z,11.43
2018-12-10T05:58:17.706Z,15.90
2018-12-10T06:00:46.944Z,11.17
2018-12-10T06:03:15.906Z,11.17
2018-12-10T06:05:45.777Z,13.20
2018-12-10T06:08:15.092Z,12.10
2018-12-10T06:10:44.042Z,17.80
2018-12-10T06:13:13.005Z,11.53
2018-12-10T06:15:41.949Z,15.13
2018-12-10T06:18:11.012Z,13.87
2018-12-10T06:20:40.929Z,10.13
2018-12-10T06:23:10.441Z,12.47
2018-12-10T06:25:41.262Z,10.57
2018-12-10T06:28:11.161Z,18.37
2018-12-10T06:30:40.109Z,11.23
2018-12-10T06:33:09.043Z,9.20
2018-12-10T06:35:38.841Z,15.97
2018-12-10T06:38:08.890Z,11.60
2018-12-10T06:40:37.849Z,12.43
2018-12-10T06:43:06.781Z,11.50
2018-12-10T06:45:35.852Z,11.00
2018-12-10T06:48:05.252Z,10.10
2018-12-10T06:50:34.279Z,11.23
2018-12-10T06:53:04.141Z,9.67
2018-12-10T06:55:33.082Z,6.23
2018-12-10T06:58:02.061Z,10.70
2018-12-10T07:00:30.991Z,9.30
2018-12-10T07:03:00.011Z,11.90
2018-12-10T07:05:28.968Z,9.23
2018-12-10T07:07:58.293Z,9.37
2018-12-10T07:10:27.340Z,6.10
2018-12-10T07:12:56.278Z,8.77
2018-12-10T07:15:25.253Z,11.77
2018-12-10T07:17:54.193Z,10.03
2018-12-10T07:20:24.085Z,8.53
2018-12-10T07:22:53.752Z,7.93
2018-12-10T07:25:23.675Z,11.10
2018-12-10T07:27:52.629Z,12.13
2018-12-10T07:30:21.566Z,13.00
2018-12-10T07:32:50.553Z,9.10
2018-12-10T07:35:19.505Z,13.10
2018-12-10T07:37:49.297Z,12.37
2018-12-10T07:40:18.258Z,11.47
2018-12-10T07:42:47.192Z,9.43
2018-12-10T07:45:16.201Z,12.27
2018-12-10T07:47:45.151Z,13.33
2018-12-10T07:50:14.094Z,13.37
2018-12-10T07:52:43.057Z,13.43
2018-12-10T07:55:13.157Z,12.67
2018-12-10T07:57:42.110Z,12.13
2018-12-10T08:00:11.050Z,18.20
2018-12-10T08:02:40.165Z,17.17
2018-12-10T08:05:12.471Z,17.43
2018-12-10T08:07:40.193Z,11.63
2018-12-10T08:10:09.155Z,16.50
2018-12-10T08:12:38.913Z,12.90
2018-12-10T08:15:08.967Z,13.53
2018-12-10T08:17:37.906Z,17.47
2018-12-10T08:20:06.993Z,10.93
2018-12-10T08:22:35.933Z,15.03
2018-12-10T08:25:05.053Z,11.43
2018-12-10T08:27:36.112Z,14.30
2018-12-10T08:30:06.534Z,10.00
2018-12-10T08:32:35.713Z,12.67
2018-12-10T08:35:04.969Z,18.90
2018-12-10T08:37:33.932Z,12.30
2018-12-10T08:40:03.885Z,13.13
2018-12-10T08:42:34.696Z,11.80
2018-12-10T08:45:04.093Z,15.80
2018-12-10T08:47:33.050Z,14.50
2018-12-10T08:50:02.094Z,11.70
2018-12-10T08:52:31.342Z,14.10
2018-12-10T08:55:01.298Z,12.30
2018-12-10T08:57:30.236Z,12.37
2018-12-10T08:59:59.201Z,14.17
2018-12-10T09:02:29.021Z,10.37
2018-12-10T09:04:58.089Z,13.17
2018-12-10T09:07:27.890Z,11.70
2018-12-10T09:09:57.397Z,12.63
2018-12-10T09:12:26.369Z,18.03
2018-12-10T09:14:55.305Z,15.63
2018-12-10T09:17:24.382Z,11.93
2018-12-10T09:19:53.322Z,16.93
2018-12-10T09:22:22.261Z,12.33
2018-12-10T09:24:51.252Z,15.20
2018-12-10T09:27:20.190Z,17.57
2018-12-10T09:29:49.237Z,12.57
2018-12-10T09:32:18.171Z,12.17
2018-12-10T09:34:47.110Z,13.43
2018-12-10T09:37:16.085Z,13.93
2018-12-10T09:39:45.029Z,12.90
2018-12-10T09:42:14.085Z,16.57
2018-12-10T09:44:43.022Z,14.97
2018-12-10T09:47:11.953Z,9.97
2018-12-10T09:49:41.010Z,15.13
2018-12-10T09:52:10.053Z,12.97
2018-12-10T09:54:39.113Z,10.60
2018-12-10T09:57:08.932Z,9.90
2018-12-10T09:59:37.873Z,11.90
2018-12-10T10:02:12.314Z,14.93
2018-12-10T10:04:37.970Z,13.83
2018-12-10T10:07:07.306Z,10.10
2018-12-10T10:09:36.262Z,11.23
2018-12-10T10:12:05.303Z,13.30
2018-12-10T10:14:34.681Z,14.93
2018-12-10T10:17:03.733Z,11.33
2018-12-10T10:19:32.758Z,9.90
2018-12-10T10:22:02.882Z,10.53
2018-12-10T10:24:31.855Z,13.93
2018-12-10T10:27:00.937Z,15.00
2018-12-10T10:29:29.873Z,14.03
2018-12-10T10:31:59.549Z,12.40
2018-12-10T10:34:30.377Z,12.63
2018-12-10T10:37:01.354Z,13.77
2018-12-10T10:39:36.557Z,13.80
2018-12-10T10:42:06.275Z,15.53
2018-12-10T10:44:35.218Z,14.07
2018-12-10T10:47:05.189Z,14.43
2018-12-10T10:49:34.837Z,15.73
2018-12-10T10:52:05.257Z,11.57
2018-12-10T10:54:36.061Z,14.20
2018-12-10T10:57:05.125Z,19.20
2018-12-10T10:59:35.102Z,15.33
2018-12-10T11:02:09.633Z,20.00
2018-12-10T11:04:38.565Z,9.30
2018-12-10T11:07:07.505Z,16.10
2018-12-10T11:09:38.249Z,16.80
2018-12-10T11:12:07.186Z,17.97
2018-12-10T11:14:36.778Z,12.03
2018-12-10T11:17:05.901Z,14.90
2018-12-10T11:19:34.841Z,12.07
2018-12-10T11:22:04.880Z,18.87
2018-12-10T11:24:33.825Z,15.40
2018-12-10T11:27:02.914Z,13.23
2018-12-10T11:29:31.934Z,15.50
2018-12-10T11:32:00.877Z,11.47
2018-12-10T11:34:30.265Z,12.43
2018-12-10T11:37:00.162Z,14.43
2018-12-10T11:39:30.237Z,16.80
2018-12-10T11:42:00.330Z,11.50
2018-12-10T11:44:30.365Z,17.93
2018-12-10T11:46:59.309Z,15.57
2018-12-10T11:49:28.253Z,15.90
2018-12-10T11:51:57.221Z,15.10
2018-12-10T11:54:26.241Z,11.33
2018-12-10T11:56:55.414Z,11.40
2018-12-10T11:59:25.273Z,9.07
2018-12-10T12:01:54.221Z,17.33
2018-12-10T12:04:23.176Z,11.00
2018-12-10T12:06:54.085Z,10.97
2018-12-10T12:09:23.420Z,14.23
2018-12-10T12:11:53.392Z,11.20
2018-12-10T12:14:22.330Z,17.47
2018-12-10T12:16:51.385Z,12.80
2018-12-10T12:19:20.672Z,14.93
2018-12-10T12:21:50.570Z,13.67
2018-12-10T12:24:20.354Z,9.97
2018-12-10T12:26:49.321Z,16.63
2018-12-10T12:29:18.283Z,11.40
2018-12-10T12:31:47.265Z,14.03
2018-12-10T12:34:17.383Z,18.23
2018-12-10T12:36:46.330Z,16.60
2018-12-10T12:39:15.271Z,14.50
2018-12-10T12:41:44.337Z,12.13
2018-12-10T12:44:13.384Z,10.27
2018-12-10T12:46:42.386Z,8.93
2018-12-10T12:49:11.422Z,8.57
2018-12-10T12:51:41.393Z,10.20
2018-12-10T12:54:10.356Z,11.63
2018-12-10T12:56:39.313Z,11.10
2018-12-10T12:59:08.860Z,11.00
2018-12-10T13:01:38.387Z,11.00
2018-12-10T13:04:07.362Z,14.00
2018-12-10T13:06:36.301Z,11.27
2018-12-10T13:09:07.037Z,9.70
2018-12-10T13:11:37.262Z,13.90
2018-12-10T13:14:06.441Z,10.30
2018-12-10T13:16:35.481Z,10.83
2018-12-10T13:19:04.422Z,14.33
2018-12-10T13:21:33.385Z,12.30
2018-12-10T13:24:02.339Z,13.07
2018-12-10T13:26:31.438Z,10.50
2018-12-10T13:29:00.465Z,9.10
2018-12-10T13:31:29.450Z,11.73
2018-12-10T13:33:58.433Z,10.83
2018-12-10T13:36:27.382Z,11.80
2018-12-10T13:38:56.455Z,9.30
2018-12-10T13:41:25.801Z,14.13
2018-12-10T13:43:54.754Z,11.03
2018-12-10T13:46:23.720Z,11.50
2018-12-10T13:48:52.654Z,8.17
2018-12-10T13:51:21.625Z,13.53
2018-12-10T13:53:50.561Z,8.53
2018-12-10T13:56:19.597Z,17.67
2018-12-10T13:58:48.538Z,11.00
2018-12-10T14:01:17.877Z,15.43
2018-12-10T14:03:47.434Z,10.60
2018-12-10T14:06:16.382Z,12.50
2018-12-10T14:08:46.115Z,10.97
2018-12-10T14:11:16.157Z,12.77
2018-12-10T14:13:45.161Z,9.07
2018-12-10T14:16:14.189Z,10.27
2018-12-10T14:18:43.351Z,13.53
2018-12-10T14:21:12.294Z,10.43
2018-12-10T14:23:41.329Z,11.73
2018-12-10T14:26:10.555Z,13.33
2018-12-10T14:28:39.506Z,13.67
2018-12-10T14:31:09.129Z,9.50
2018-12-10T14:33:38.555Z,7.50
2018-12-10T14:36:07.529Z,8.97
2018-12-10T14:38:39.404Z,10.17
2018-12-10T14:41:08.565Z,9.43
2018-12-10T14:43:37.597Z,6.10
2018-12-10T14:46:06.725Z,6.67
2018-12-10T14:48:35.789Z,7.50
2018-12-10T14:51:04.917Z,9.13
2018-12-10T14:53:33.875Z,6.37
2018-12-10T14:56:04.830Z,9.23
2018-12-10T14:58:33.779Z,4.50
2018-12-10T15:01:02.717Z,6.33
2018-12-10T15:03:31.803Z,17.07
2018-12-10T15:06:00.737Z,8.67
2018-12-10T15:08:29.672Z,8.57
2018-12-10T15:10:58.640Z,7.37
2018-12-10T15:13:28.017Z,8.17
2018-12-10T15:15:57.026Z,10.80
2018-12-10T15:18:26.068Z,14.27
2018-12-10T15:20:55.014Z,11.00
2018-12-10T15:23:23.977Z,11.53
2018-12-10T15:25:52.926Z,10.43
2018-12-10T15:28:22.969Z,9.97
2018-12-10T15:30:52.085Z,8.83
2018-12-10T15:33:21.039Z,7.97
2018-12-10T15:35:50.004Z,11.17
2018-12-10T15:38:19.041Z,9.50
2018-12-10T15:40:47.997Z,10.97
2018-12-10T15:43:16.937Z,13.67
2018-12-10T15:45:45.898Z,10.50
2018-12-10T15:48:15.521Z,7.90
2018-12-10T15:50:45.645Z,10.57
2018-12-10T15:53:14.586Z,5.73
2018-12-10T15:55:43.571Z,9.83
2018-12-10T15:58:13.670Z,10.70
2018-12-10T16:00:42.628Z,7.67
2018-12-10T16:03:12.503Z,10.47
2018-12-10T16:05:41.911Z,9.87
2018-12-10T16:08:10.870Z,8.60
2018-12-10T16:10:39.813Z,12.43
2018-12-10T16:13:10.457Z,10.60
2018-12-10T16:15:39.400Z,11.20
2018-12-10T16:18:08.361Z,9.10
2018-12-10T16:20:37.297Z,11.03
2018-12-10T16:23:06.454Z,12.07
2018-12-10T16:25:35.397Z,6.77
2018-12-10T16:28:04.445Z,6.07
2018-12-10T16:30:33.908Z,9.43
2018-12-10T16:33:02.960Z,8.60
2018-12-10T16:35:32.825Z,5.60
2018-12-10T16:38:01.842Z,5.97
2018-12-10T16:40:30.772Z,7.03
2018-12-10T16:43:00.637Z,6.30
2018-12-10T16:45:29.578Z,6.00
2018-12-10T16:47:58.549Z,7.97
2018-12-10T16:50:28.053Z,7.23
2018-12-10T16:52:56.992Z,5.77
2018-12-10T16:55:26.045Z,4.53
2018-12-10T16:57:55.817Z,5.27
2018-12-10T17:00:25.477Z,6.17
2018-12-10T17:02:55.454Z,7.43
2018-12-10T17:05:28.704Z,5.80
2018-12-10T17:07:58.240Z,5.50
2018-12-10T17:10:27.186Z,6.27
2018-12-10T17:12:57.049Z,6.83
2018-12-10T17:15:25.988Z,4.53
2018-12-10T17:17:55.423Z,10.33
2018-12-10T17:20:24.452Z,5.97
2018-12-10T17:22:54.615Z,9.90
2018-12-10T17:25:23.664Z,6.80
2018-12-10T17:27:55.829Z,6.43
2018-12-10T17:30:25.142Z,6.47
2018-12-10T17:32:55.180Z,5.73
2018-12-10T17:35:24.109Z,3.67
2018-12-10T17:38:05.773Z,5.83
2018-12-10T17:40:34.823Z,5.63
2018-12-10T17:43:04.410Z,13.50
2018-12-10T17:45:33.375Z,6.27
2018-12-10T17:48:02.362Z,4.83
2018-12-10T17:50:31.597Z,13.03
2018-12-10T17:53:01.425Z,14.77
2018-12-10T17:55:30.477Z,12.50
2018-12-10T17:57:59.502Z,7.73
2018-12-10T18:00:29.358Z,5.87
2018-12-10T18:02:58.657Z,5.77
2018-12-10T18:05:27.632Z,5.83
2018-12-10T18:07:56.664Z,6.60
2018-12-10T18:10:25.623Z,7.80
2018-12-10T18:12:54.709Z,9.03
2018-12-10T18:15:23.990Z,5.63
2018-12-10T18:17:54.255Z,5.60
2018-12-10T18:20:24.329Z,10.10
2018-12-10T18:22:54.910Z,4.17
2018-12-10T18:25:23.897Z,8.40
2018-12-10T18:27:53.309Z,7.40
2018-12-10T18:30:23.909Z,8.03
2018-12-10T18:32:52.938Z,11.53
2018-12-10T18:35:21.930Z,7.37
2018-12-10T18:37:50.913Z,9.97
2018-12-10T18:40:20.097Z,10.00
2018-12-10T18:42:49.077Z,7.33
2018-12-10T18:45:18.421Z,6.30
2018-12-10T18:47:47.512Z,6.57
2018-12-10T18:50:17.201Z,12.20
2018-12-10T18:52:46.597Z,7.80
2018-12-10T18:55:16.354Z,8.43
2018-12-10T18:57:47.525Z,7.10
2018-12-10T19:00:16.640Z,7.67
2018-12-10T19:02:45.612Z,6.23
2018-12-10T19:05:17.361Z,8.47
2018-12-10T19:07:48.272Z,8.77
2018-12-10T19:10:17.572Z,6.77
2018-12-10T19:12:47.670Z,7.47
2018-12-10T19:15:16.636Z,7.77
2018-12-10T19:17:47.613Z,5.63
2018-12-10T19:20:18.777Z,7.83
2018-12-10T19:22:49.811Z,5.97
2018-12-10T19:25:18.797Z,5.17
2018-12-10T19:27:48.357Z,5.57
2018-12-10T19:30:17.878Z,11.07
2018-12-10T19:32:46.881Z,5.90
2018-12-10T19:35:15.859Z,5.63
2018-12-10T19:37:45.235Z,7.10
2018-12-10T19:40:15.126Z,6.87
2018-12-10T19:42:44.110Z,8.40
2018-12-10T19:45:13.283Z,8.87
2018-12-10T19:47:42.784Z,11.47
2018-12-10T19:50:11.826Z,9.10
2018-12-10T19:52:46.106Z,5.83
2018-12-10T19:55:15.189Z,7.87
2018-12-10T19:57:44.157Z,11.17
2018-12-10T20:00:15.488Z,11.67
2018-12-10T20:02:44.589Z,7.67
2018-12-10T20:05:13.887Z,14.30
2018-12-10T20:07:44.122Z,10.63
2018-12-10T20:10:13.221Z,8.63
2018-12-10T20:12:42.244Z,8.13
2018-12-10T20:15:12.590Z,11.40
2018-12-10T20:17:44.457Z,8.50
2018-12-10T20:20:16.541Z,8.43
2018-12-10T20:22:45.630Z,11.10
2018-12-10T20:25:15.743Z,12.00
2018-12-10T20:27:44.786Z,15.10
2018-12-10T20:30:14.088Z,8.63
2018-12-10T20:32:43.516Z,14.03
2018-12-10T20:35:14.518Z,9.83
2018-12-10T20:37:43.532Z,12.87
2018-12-10T20:40:12.695Z,15.43
2018-12-10T20:42:43.016Z,14.93
2018-12-10T20:45:14.052Z,14.80
2018-12-10T20:47:43.067Z,16.50
2018-12-10T20:50:14.309Z,13.40
2018-12-10T20:52:43.308Z,14.43
2018-12-10T20:55:12.304Z,15.40
2018-12-10T20:57:41.609Z,12.97
2018-12-10T21:00:10.901Z,12.50
2018-12-10T21:02:39.945Z,14.13
2018-12-10T21:05:09.389Z,12.27
2018-12-10T21:07:38.383Z,11.17
2018-12-10T21:10:07.717Z,10.77
2018-12-10T21:12:38.895Z,9.83
2018-12-10T21:15:08.473Z,14.80
2018-12-10T21:17:37.441Z,40.03
2018-12-10T21:20:10.846Z,10.90
2018-12-10T21:22:39.878Z,12.67
2018-12-10T21:25:14.589Z,10.30
2018-12-10T21:27:49.052Z,15.07
2018-12-10T21:30:19.355Z,13.50
2018-12-10T21:32:48.462Z,12.00
2018-12-10T21:35:17.457Z,16.77
2018-12-10T21:37:47.501Z,15.67
2018-12-10T21:40:17.590Z,15.23
2018-12-10T21:42:47.210Z,11.90
2018-12-10T21:45:16.272Z,17.37
2018-12-10T21:47:46.198Z,9.67
2018-12-10T21:50:15.402Z,13.73
2018-12-10T21:52:45.381Z,8.73
2018-12-10T21:55:17.007Z,15.97
2018-12-10T21:57:45.618Z,15.80
2018-12-10T22:00:14.837Z,21.27
2018-12-10T22:02:50.757Z,21.47
2018-12-10T22:05:23.162Z,14.27
2018-12-10T22:07:54.718Z,45.87
2018-12-10T22:10:26.387Z,21.60
2018-12-10T22:12:59.196Z,18.37
2018-12-10T22:15:31.824Z,36.27
2018-12-10T22:18:10.413Z,22.17
2018-12-10T22:20:43.620Z,16.47
2018-12-10T22:23:18.206Z,14.97
2018-12-10T22:25:50.569Z,17.23
2018-12-10T22:28:20.876Z,12.63
2018-12-10T22:30:55.265Z,12.37
2018-12-10T22:33:25.005Z,16.17
2018-12-10T22:35:53.993Z,18.67
2018-12-10T22:38:22.965Z,17.23
2018-12-10T22:40:52.029Z,16.97
2018-12-10T22:43:20.977Z,20.50
2018-12-10T22:45:49.921Z,11.97
2018-12-10T22:48:18.905Z,13.93
2018-12-10T22:50:47.845Z,17.40
2018-12-10T22:53:17.164Z,24.23
2018-12-10T22:55:46.151Z,14.37
2018-12-10T22:58:15.491Z,22.57
2018-12-10T23:00:51.149Z,18.63
2018-12-10T23:03:21.045Z,18.13
2018-12-10T23:05:50.917Z,20.07
2018-12-10T23:08:19.881Z,20.13
2018-12-10T23:10:48.829Z,23.90
2018-12-10T23:13:17.892Z,19.03
2018-12-10T23:15:48.658Z,19.77
2018-12-10T23:18:17.624Z,23.20
2018-12-10T23:20:46.926Z,18.47
2018-12-10T23:23:15.857Z,17.73
2018-12-10T23:25:44.833Z,23.27
2018-12-10T23:28:13.870Z,21.43
2018-12-10T23:30:42.809Z,17.80
2018-12-10T23:33:12.938Z,23.33
2018-12-10T23:35:41.875Z,20.30
2018-12-10T23:38:10.880Z,20.37
2018-12-10T23:40:39.869Z,23.33
2018-12-10T23:43:14.333Z,17.33
2018-12-10T23:45:43.409Z,25.00
2018-12-10T23:48:13.206Z,18.07
2018-12-10T23:50:42.140Z,17.03
2018-12-10T23:53:11.113Z,20.23
2018-12-10T23:55:40.054Z,24.80
2018-12-10T23:58:08.990Z,19.43
